Monday, July 28, 2014
12:28 UTC
  |  Log In   |  Register Free
Airport Search:

Chanute Martin Johnson Airport
(KCNU)

Chanute Martin Johnson Airport Diagram
No Airport Diagram Available

FAA data valid effective July 24, 2014 until September 18, 2014 (unless otherwise noted).

 
 
 
 
 
 
 
 
 
 
 
 
 
 

Current Aviation Weather for Chanute Martin Johnson Airport (KCNU)

The most recent METAR observation for KCNU was updated at: 1052 UTC
METAR Summary (Translated METAR)
KCNU
281052Z AUTO 36004KT 10SM CLR 16/14 A3018 RMK AO2 SLP211 T01560139
KPPF
(20.3 nm SW from KCNU)
281152Z AUTO 00000KT 10SM CLR 15/13 A3020 RMK AO2 SLP218 T01500133 10217 20139 53013
TAF Summary (Translated TAF)
KCNU
281120Z 2812/2912 36008KT P6SM SCT250 FM290200 VRB03KT P6SM SCT150
  Airport Weather Conditions for KCNU

 Current Weather at CNU
62° F
Fair
North winds at 6.9 mph
CNU NOAA Radar

Pressure: 30.20 in
Humidity: 86%
Wind: North at 6.9 MPH (6 KT)
Dew Point: 57.9°F
Visibility: 10.00 mi


Airport Weather Forecast for KCNU

Translated METAR and TAF for KCNU
Translated METAR for KCNU (1221 UTC 28 July 2014)
found at http://aviationweather.gov/adds/metars/
 
METAR text: KCNU 281152Z AUTO 01006KT 10SM CLR 17/14 A3020 RMK AO2 SLP215 T01670144 10200 20144 53012
Conditions at: KCNU (CHANUTE , KS, US) observed 1152 UTC 28 July 2014
Temperature: 16.7°C (62°F)
Dewpoint: 14.4°C (58°F) [RH = 86%]
Pressure (altimeter): 30.20 inches Hg (1022.8 mb)
[Sea-level pressure: 1021.5 mb]
Winds: from the N (10 degrees) at 7 MPH (6 knots; 3.1 m/s)
Visibility: 10 or more miles (16+ km)
Ceiling: at least 12,000 feet AGL
Clouds: sky clear below 12,000 feet AGL
Weather: automated observation with no human augmentation;
there may or may not be significant weather present at this time
Translated TAF for KCNU
Forecast for: KCNU (CHANUTE , KS, US)
TAF Text: KCNU 281120Z 2812/2912 36008KT P6SM SCT250
Forecast period: 1200 UTC 28 July 2014 to 0200 UTC 29 July 2014
Forecast type: FROM: standard forecast or significant change
Winds: from the N (360 degrees) at 9 MPH (8 knots; 4.2 m/s)
Visibility: 6 or more miles (10+ km)
Clouds: scattered clouds at 25000 feet AGL
Weather: no significant weather forecast for this period
TAF Text: FM290200 VRB03KT P6SM SCT150
Forecast period: 0200 to 1200 UTC 29 July 2014
Forecast type: FROM: standard forecast or significant change
Winds: variable direction winds at 3 MPH (3 knots; 1.6 m/s)
Visibility: 6 or more miles (10+ km)
Clouds: scattered clouds at 15000 feet AGL
Weather: no significant weather forecast for this period

Find All Airport Services Find A Hotel Find A Rental Car Find A Golf Course Find A Restaurant $100 Hamburger



FBO's on the Field
FBO Company Facility Photos Services Transportation Aviation Fuel Prices: Prices include tax
Catering Weather Repair Courtesy Rental Type 100LL JetA JetA+ MOGAS 8087
 
City of Chanute

This FBO has not yet been rated
FS:Phillips66
Last Updated: Jul-16
Login to update fuel prices
SS:
Contact City of ChanuteMore FBO Information
 
Add another FBO Facility Photos Catering Weather Repair Courtesy Rental Type 100LL JetA JetA+ MOGAS 8087
Services Transportation Aviation Fuel Prices: Prices include tax


GlobalAir.com Airport Resource Center model-print
model-print
model-print
model-print